Time;durP1;ratioP1;P1;durP2;ratioP2;P2;SDS_P1;SDS_P2;PMS_P1;PMS_P2;Temp;Humidity;BMP_temperature;BMP_pressure;BME280_temperature;BME280_humidity;BME280_pressure;Samples;Min_cycle;Max_cycle;Signal;HPM_P1;HPM_P2
2021/12/01 00:00:51;;;;;;;33.03;15.27;;;;;;;5.38;96.66;99932.22;1988198;29;25025;-63
2021/12/01 00:01:53;;;;;;;28.30;13.07;;;;;;;5.39;96.40;99922.50;1986725;29;20050;-64
2021/12/01 00:02:56;;;;;;;30.92;14.68;;;;;;;5.39;96.73;99927.81;1986431;29;31064;-63
2021/12/01 00:03:57;;;;;;;26.05;13.18;;;;;;;5.40;96.70;99916.25;1986616;29;25781;-64
2021/12/01 00:04:59;;;;;;;28.38;13.40;;;;;;;5.41;96.66;99923.34;1986841;29;21039;-63
2021/12/01 00:06:02;;;;;;;35.13;14.40;;;;;;;5.40;96.53;99911.84;1986764;29;23103;-63
2021/12/01 00:07:07;;;;;;;35.63;14.93;;;;;;;5.40;96.66;99906.53;1986848;29;20177;-64
2021/12/01 00:08:10;;;;;;;29.65;14.10;;;;;;;5.40;96.47;99903.88;1986718;29;20044;-65
2021/12/01 00:09:12;;;;;;;27.85;13.20;;;;;;;5.40;96.70;99897.69;1987175;29;20874;-63
2021/12/01 00:10:15;;;;;;;28.63;13.93;;;;;;;5.40;96.96;99887.06;1986664;29;28490;-64
2021/12/01 00:11:17;;;;;;;29.08;13.50;;;;;;;5.42;96.72;99890.56;1986393;29;32150;-63
2021/12/01 00:12:19;;;;;;;27.88;13.80;;;;;;;5.41;96.70;99887.03;1987128;29;20127;-62
2021/12/01 00:13:21;;;;;;;27.88;13.50;;;;;;;5.42;96.96;99877.28;1986665;29;27504;-63
2021/12/01 00:14:23;;;;;;;31.98;14.35;;;;;;;5.41;96.88;99883.53;1985204;29;26993;-63
2021/12/01 00:15:25;;;;;;;28.38;12.38;;;;;;;5.43;96.62;99871.09;1986791;29;20296;-63
2021/12/01 00:16:27;;;;;;;26.13;12.25;;;;;;;5.43;96.88;99876.41;1986515;29;24873;-63
2021/12/01 00:17:29;;;;;;;26.50;12.25;;;;;;;5.43;96.90;99874.59;1986758;29;26338;-63
2021/12/01 00:18:30;;;;;;;22.38;12.73;;;;;;;5.44;97.08;99862.22;1986758;29;25057;-63
2021/12/01 00:19:33;;;;;;;24.70;12.88;;;;;;;5.44;96.88;99859.56;1986682;29;27022;-63
2021/12/01 00:20:36;;;;;;;20.73;10.98;;;;;;;5.45;97.00;99856.00;1986817;29;20140;-63
2021/12/01 00:21:38;;;;;;;20.75;10.82;;;;;;;5.47;96.85;99851.53;1987090;29;20166;-63
2021/12/01 00:22:41;;;;;;;27.05;12.90;;;;;;;5.47;96.87;99852.44;1986348;29;29772;-63
2021/12/01 00:23:45;;;;;;;19.30;11.63;;;;;;;5.48;96.78;99845.34;1986289;29;24897;-63
2021/12/01 00:24:47;;;;;;;25.20;11.82;;;;;;;5.50;96.76;99843.50;1986775;29;20106;-63
2021/12/01 00:25:49;;;;;;;22.85;12.10;;;;;;;5.50;96.63;99836.41;1986135;29;24012;-63
2021/12/01 00:26:51;;;;;;;24.40;12.18;;;;;;;5.51;96.58;99829.34;1986561;29;24289;-63
2021/12/01 00:27:55;;;;;;;23.63;12.73;;;;;;;5.51;96.89;99834.66;1986585;29;21054;-62
2021/12/01 00:28:57;;;;;;;23.85;12.10;;;;;;;5.51;96.68;99832.00;1978703;29;20052;-63
2021/12/01 00:29:59;;;;;;;28.10;14.23;;;;;;;5.51;96.70;99829.34;1978165;29;28425;-63
2021/12/01 00:31:01;;;;;;;23.30;12.90;;;;;;;5.51;96.45;99837.31;1986820;29;23594;-63
2021/12/01 00:32:04;;;;;;;21.85;11.77;;;;;;;5.51;96.78;99824.03;1987052;29;20048;-63
2021/12/01 00:33:10;;;;;;;23.83;14.57;;;;;;;5.52;96.94;99825.78;1986226;29;28201;-63
2021/12/01 00:34:12;;;;;;;23.58;14.48;;;;;;;5.52;97.02;99817.81;1988157;29;20173;-63
2021/12/01 00:35:14;;;;;;;25.83;14.30;;;;;;;5.51;96.66;99814.28;1985664;29;20043;-63
2021/12/01 00:36:16;;;;;;;26.75;14.68;;;;;;;5.52;96.80;99818.66;1986213;29;20362;-64
2021/12/01 00:37:18;;;;;;;28.05;15.20;;;;;;;5.51;96.79;99803.66;1986702;29;29908;-63
2021/12/01 00:38:24;;;;;;;27.17;15.23;;;;;;;5.53;96.79;99806.28;1986672;29;20047;-63
2021/12/01 00:39:26;;;;;;;26.67;15.80;;;;;;;5.54;96.50;99805.38;1986476;29;20189;-63
2021/12/01 00:40:28;;;;;;;27.55;14.15;;;;;;;5.54;96.73;99794.75;1985211;29;34445;-62
2021/12/01 00:41:29;;;;;;;29.38;14.88;;;;;;;5.53;97.01;99799.19;1985686;29;24818;-63
2021/12/01 00:42:34;;;;;;;28.25;15.80;;;;;;;5.53;96.83;99796.53;1986643;29;20174;-63
2021/12/01 00:43:39;;;;;;;26.98;14.93;;;;;;;5.54;96.99;99790.34;1985952;29;28694;-63
2021/12/01 01:06:47;;;;;;;20.80;11.43;;;;;;;5.72;97.01;99720.03;1986361;29;20040;-63
2021/12/01 02:21:36;;;;;;;52.55;18.35;;;;;;;6.69;98.62;99493.34;1985330;29;20051;-61
2021/12/01 02:22:38;;;;;;;53.53;18.15;;;;;;;6.70;98.70;99492.44;1987015;29;23359;-61
2021/12/01 02:23:47;;;;;;;61.42;19.35;;;;;;;6.72;98.18;99490.59;1986291;29;20143;-62
2021/12/01 02:24:49;;;;;;;56.00;18.88;;;;;;;6.73;98.04;99487.03;1987133;29;20046;-61
2021/12/01 02:25:52;;;;;;;58.63;20.40;;;;;;;6.74;98.28;99479.91;1987170;29;28674;-61
2021/12/01 02:26:54;;;;;;;58.17;19.88;;;;;;;6.76;98.25;99484.25;1987115;29;22916;-61
2021/12/01 02:27:56;;;;;;;66.05;21.67;;;;;;;6.76;98.44;99470.97;1987373;29;20085;-61
2021/12/01 02:29:04;;;;;;;55.13;19.58;;;;;;;6.77;98.29;99467.41;1986014;29;31614;-61
2021/12/01 02:30:07;;;;;;;61.47;21.73;;;;;;;6.80;97.99;99467.31;1985452;29;23712;-62
2021/12/01 02:31:09;;;;;;;64.90;21.52;;;;;;;6.82;98.30;99461.91;1988928;29;25307;-62
2021/12/01 02:32:11;;;;;;;70.55;22.98;;;;;;;6.83;98.08;99459.22;1985811;29;20051;-60
2021/12/01 02:33:13;;;;;;;71.07;23.23;;;;;;;6.87;98.45;99444.91;1985450;29;31014;-61
2021/12/01 02:34:22;;;;;;;83.30;24.88;;;;;;;6.89;98.57;99439.50;1986612;29;29380;-61
2021/12/01 02:35:24;;;;;;;73.47;24.23;;;;;;;6.90;98.30;99451.06;1984293;29;30179;-62
2021/12/01 02:36:27;;;;;;;83.25;25.88;;;;;;;6.92;98.36;99438.56;1979837;29;31490;-61
2021/12/01 02:37:29;;;;;;;78.32;24.73;;;;;;;6.93;98.22;99446.50;1989458;29;27975;-62
2021/12/01 02:38:32;;;;;;;86.25;25.08;;;;;;;6.95;98.08;99443.78;1986479;29;20070;-61
2021/12/01 02:39:35;;;;;;;75.25;24.02;;;;;;;6.95;98.54;99441.13;1985687;29;26049;-62
2021/12/01 02:40:37;;;;;;;85.85;25.77;;;;;;;6.97;98.24;99433.97;1980369;29;21668;-61
2021/12/01 02:41:39;;;;;;;82.60;27.15;;;;;;;6.98;98.13;99428.59;1987629;29;27800;-61
2021/12/01 02:42:44;;;;;;;83.80;27.08;;;;;;;7.00;98.41;99425.88;1988501;29;27513;-62
2021/12/01 02:43:47;;;;;;;84.28;27.40;;;;;;;7.04;97.98;99422.22;1986333;29;28919;-62
2021/12/01 02:44:50;;;;;;;96.30;29.70;;;;;;;7.08;98.20;99416.72;1987204;29;28344;-62
2021/12/01 02:45:54;;;;;;;85.32;27.70;;;;;;;7.14;98.27;99421.00;1987329;29;20673;-62
2021/12/01 02:46:56;;;;;;;100.22;29.77;;;;;;;7.14;98.42;99413.00;1986601;29;20039;-62
2021/12/01 02:47:58;;;;;;;97.35;30.10;;;;;;;7.16;98.15;99405.84;1987189;29;26016;-62
2021/12/01 02:49:00;;;;;;;94.40;29.75;;;;;;;7.19;98.71;99405.72;1985907;29;20542;-62
2021/12/01 02:50:03;;;;;;;89.65;28.67;;;;;;;7.19;98.24;99400.38;1986890;29;20090;-62
2021/12/01 02:51:05;;;;;;;99.53;30.13;;;;;;;7.23;98.39;99399.38;1986468;29;24252;-62
2021/12/01 02:52:07;;;;;;;105.88;32.15;;;;;;;7.30;98.63;99391.16;1989290;29;28715;-61
2021/12/01 02:53:10;;;;;;;100.68;31.48;;;;;;;7.29;98.14;99390.31;1986568;29;24603;-62
2021/12/01 02:54:12;;;;;;;110.03;31.00;;;;;;;7.31;98.49;99382.28;1986661;29;21964;-61
2021/12/01 02:55:18;;;;;;;107.47;32.72;;;;;;;7.32;98.32;99376.91;1987427;29;20131;-62
2021/12/01 02:56:22;;;;;;;88.45;29.55;;;;;;;7.35;98.11;99375.91;1986221;29;24627;-62
2021/12/01 02:57:25;;;;;;;109.03;33.08;;;;;;;7.37;98.48;99368.72;1986685;29;34226;-62
2021/12/01 02:58:32;;;;;;;103.82;32.38;;;;;;;7.37;98.21;99372.25;1987495;29;20040;-62
2021/12/01 02:59:36;;;;;;;104.75;33.72;;;;;;;7.42;98.11;99361.47;1987050;29;20944;-62
2021/12/01 03:00:38;;;;;;;103.00;33.65;;;;;;;7.43;98.35;99360.53;1987108;29;31219;-62
2021/12/01 03:01:40;;;;;;;103.30;34.15;;;;;;;7.45;98.07;99354.22;1988648;29;20479;-62
2021/12/01 03:02:45;;;;;;;104.68;35.17;;;;;;;7.51;98.30;99347.81;1986835;29;21010;-62
2021/12/01 03:03:48;;;;;;;101.88;34.17;;;;;;;7.53;98.27;99345.94;1986907;29;22502;-61
2021/12/01 03:04:50;;;;;;;109.47;36.70;;;;;;;7.57;98.29;99344.94;1979253;29;20139;-62
2021/12/01 03:05:56;;;;;;;112.00;34.88;;;;;;;7.55;98.62;99338.78;1971631;29;33561;-62
2021/12/01 03:06:58;;;;;;;107.32;34.05;;;;;;;7.57;98.12;99344.94;1980363;29;20040;-62
2021/12/01 03:08:00;;;;;;;104.05;35.50;;;;;;;7.57;97.81;99331.63;1988004;29;20947;-62
2021/12/01 03:09:07;;;;;;;117.53;36.55;;;;;;;7.60;97.94;99342.16;1986351;29;33282;-62
2021/12/01 03:10:12;;;;;;;104.70;34.78;;;;;;;7.62;98.03;99326.97;1986807;29;20043;-62
2021/12/01 03:11:15;;;;;;;107.93;36.30;;;;;;;7.64;97.82;99327.81;1986146;29;27816;-62
2021/12/01 03:12:17;;;;;;;110.53;36.22;;;;;;;7.67;97.86;99325.94;1987558;29;20048;-62
2021/12/01 03:13:21;;;;;;;101.72;37.30;;;;;;;7.67;97.60;99317.97;1986759;29;29421;-62
2021/12/01 03:14:23;;;;;;;97.82;36.70;;;;;;;7.70;97.82;99316.06;1986153;29;28137;-62
2021/12/01 03:15:25;;;;;;;102.00;37.40;;;;;;;7.74;97.49;99314.16;1986591;29;23034;-62
2021/12/01 03:16:26;;;;;;;98.30;36.85;;;;;;;7.75;97.89;99313.19;1986507;29;20059;-62
2021/12/01 03:17:30;;;;;;;103.75;37.20;;;;;;;7.78;97.53;99302.44;1987149;29;26199;-62
2021/12/01 03:18:33;;;;;;;99.15;37.95;;;;;;;7.79;97.96;99307.72;1987249;29;20040;-62
2021/12/01 03:19:35;;;;;;;99.15;38.45;;;;;;;7.82;97.93;99306.72;1987136;29;23233;-62
2021/12/01 03:20:38;;;;;;;93.75;37.45;;;;;;;7.83;97.51;99297.81;1986513;29;27784;-62
2021/12/01 03:21:42;;;;;;;92.90;36.03;;;;;;;7.82;97.66;99293.38;1985861;29;20078;-62
2021/12/01 03:22:44;;;;;;;94.50;37.13;;;;;;;7.85;97.27;99293.28;1987605;29;26261;-62
2021/12/01 03:23:46;;;;;;;94.75;37.03;;;;;;;7.85;97.39;99287.94;1986863;29;20992;-62
2021/12/01 03:24:49;;;;;;;98.00;38.53;;;;;;;7.87;97.64;99290.56;1987068;29;24713;-62
2021/12/01 03:25:51;;;;;;;95.05;37.72;;;;;;;7.89;97.26;99294.03;1987055;29;26257;-62
2021/12/01 03:26:53;;;;;;;92.00;36.60;;;;;;;7.89;97.53;99283.38;1987023;29;20152;-62
2021/12/01 03:27:57;;;;;;;86.03;36.33;;;;;;;7.91;98.09;99287.69;1986343;29;23543;-63
2021/12/01 03:28:59;;;;;;;93.05;37.47;;;;;;;7.93;97.62;99283.22;1986174;29;30091;-62
2021/12/01 03:30:05;;;;;;;88.38;35.45;;;;;;;7.95;97.67;99275.13;1987155;29;24640;-62
2021/12/01 03:31:07;;;;;;;83.55;35.17;;;;;;;7.95;97.47;99270.69;1987222;29;23483;-62
2021/12/01 03:32:10;;;;;;;83.93;33.58;;;;;;;7.97;97.27;99275.97;1989431;29;20047;-62
2021/12/01 03:33:17;;;;;;;77.78;34.08;;;;;;;7.98;97.86;99265.22;1986883;29;27118;-62
2021/12/01 03:34:22;;;;;;;77.13;32.25;;;;;;;7.99;97.27;99258.97;1986992;29;20807;-62
2021/12/01 03:35:24;;;;;;;75.40;30.85;;;;;;;8.01;97.04;99265.09;1987097;29;20195;-62
2021/12/01 03:36:28;;;;;;;66.60;29.10;;;;;;;8.05;97.98;99267.66;1986789;29;26870;-62
2021/12/01 03:37:30;;;;;;;64.65;28.42;;;;;;;8.06;97.37;99264.03;1987270;29;20051;-62
2021/12/01 03:38:32;;;;;;;60.72;27.08;;;;;;;8.07;97.38;99265.78;1986811;29;30075;-62
2021/12/01 03:39:35;;;;;;;66.00;26.88;;;;;;;8.07;98.00;99244.47;1986464;29;31018;-62
2021/12/01 03:40:39;;;;;;;56.45;25.85;;;;;;;8.09;97.94;99259.47;1986426;29;31243;-63
2021/12/01 03:41:41;;;;;;;53.85;24.10;;;;;;;8.10;97.75;99255.03;1986271;29;32488;-62
2021/12/01 03:42:45;;;;;;;48.00;21.35;;;;;;;8.11;97.36;99246.97;1986351;29;34660;-62
2021/12/01 03:43:47;;;;;;;48.15;22.67;;;;;;;8.12;97.43;99238.03;1986894;29;20099;-62
2021/12/01 03:44:49;;;;;;;45.05;21.45;;;;;;;8.13;97.09;99238.88;1987073;29;22531;-62
2021/12/01 03:45:51;;;;;;;44.78;20.63;;;;;;;8.15;97.62;99234.38;1986906;29;25208;-62
2021/12/01 03:46:56;;;;;;;42.65;20.00;;;;;;;8.18;97.75;99236.91;1987339;29;20086;-62
2021/12/01 03:47:58;;;;;;;41.17;18.88;;;;;;;8.19;97.91;99233.31;1987300;29;23627;-62
2021/12/01 03:49:00;;;;;;;35.22;18.27;;;;;;;8.19;97.43;99228.84;1986199;29;20124;-62
2021/12/01 03:50:04;;;;;;;36.78;18.02;;;;;;;8.20;97.21;99227.03;1986902;29;20131;-62
2021/12/01 03:51:06;;;;;;;33.40;17.42;;;;;;;8.22;96.87;99219.88;1986749;29;24160;-62
2021/12/01 03:52:13;;;;;;;34.33;17.30;;;;;;;8.25;97.32;99226.88;1986668;29;20124;-62
2021/12/01 03:53:19;;;;;;;31.52;16.38;;;;;;;8.25;97.29;99224.19;1978659;29;25571;-62
2021/12/01 03:54:21;;;;;;;31.80;16.30;;;;;;;8.24;97.20;99220.66;1979333;29;23306;-62
2021/12/01 03:55:23;;;;;;;33.63;16.13;;;;;;;8.26;96.76;99213.47;1987463;29;20982;-62
2021/12/01 03:56:25;;;;;;;27.40;15.50;;;;;;;8.24;96.89;99210.00;1986257;29;30561;-62
2021/12/01 03:57:29;;;;;;;28.35;14.55;;;;;;;8.26;97.19;99213.47;1987506;29;20140;-62
2021/12/01 03:58:31;;;;;;;25.85;14.05;;;;;;;8.25;96.80;99211.72;1986925;29;20055;-62
2021/12/01 03:59:33;;;;;;;27.33;14.05;;;;;;;8.29;97.53;99200.03;1979119;29;20804;-63
2021/12/01 04:00:35;;;;;;;23.58;13.43;;;;;;;8.29;96.54;99188.47;1978970;29;25203;-62
2021/12/01 04:01:39;;;;;;;22.20;12.35;;;;;;;8.29;97.32;99194.69;1986338;29;20084;-63
2021/12/01 04:02:44;;;;;;;21.40;12.52;;;;;;;8.29;97.36;99194.69;1988860;29;31374;-63
2021/12/01 04:03:46;;;;;;;19.88;12.02;;;;;;;8.31;97.32;99190.16;1986705;29;21717;-63
2021/12/01 04:04:48;;;;;;;19.50;11.52;;;;;;;8.31;96.74;99187.50;1986676;29;26330;-63
2021/12/01 04:05:50;;;;;;;18.92;10.93;;;;;;;8.34;96.57;99189.16;1986732;29;26788;-62
2021/12/01 04:06:52;;;;;;;18.70;11.98;;;;;;;8.33;96.97;99172.28;1986899;29;20987;-63
2021/12/01 04:07:54;;;;;;;16.75;10.57;;;;;;;8.33;96.96;99172.28;1987275;29;20044;-63
2021/12/01 04:08:57;;;;;;;17.27;10.90;;;;;;;8.34;97.23;99171.34;1978632;29;23246;-63
2021/12/01 04:09:59;;;;;;;15.88;10.32;;;;;;;8.34;97.31;99174.00;1979143;29;20162;-63
2021/12/01 04:11:02;;;;;;;14.80;9.73;;;;;;;8.34;96.40;99168.66;1987584;29;20051;-63
2021/12/01 04:12:06;;;;;;;15.15;10.18;;;;;;;8.35;96.47;99169.56;1986322;29;27021;-63
2021/12/01 04:13:07;;;;;;;15.32;10.15;;;;;;;8.35;96.42;99165.09;1987080;29;20120;-63
2021/12/01 04:14:10;;;;;;;12.25;8.57;;;;;;;8.35;96.28;99165.09;1986892;29;20047;-63
2021/12/01 04:15:14;;;;;;;13.73;9.38;;;;;;;8.34;96.22;99165.16;1986864;29;25457;-63
2021/12/01 04:16:17;;;;;;;12.10;9.10;;;;;;;8.35;96.59;99161.56;1986927;29;20099;-62
2021/12/01 04:17:21;;;;;;;14.20;9.10;;;;;;;8.34;96.14;99149.16;1986683;29;20054;-63
2021/12/01 04:18:23;;;;;;;12.73;8.25;;;;;;;8.34;96.79;99158.00;1986617;29;26356;-63
2021/12/01 04:19:25;;;;;;;11.27;8.02;;;;;;;8.36;96.42;99156.16;1986582;29;24199;-63
2021/12/01 04:20:27;;;;;;;9.70;7.53;;;;;;;8.38;96.43;99150.75;1986596;29;26645;-62
2021/12/01 04:21:29;;;;;;;11.65;7.38;;;;;;;8.38;96.31;99142.75;1986859;29;20055;-63
2021/12/01 04:22:31;;;;;;;9.40;7.35;;;;;;;8.41;96.98;99139.94;1986753;29;20869;-63
2021/12/01 04:23:35;;;;;;;11.07;6.68;;;;;;;8.38;96.88;99142.75;1986465;29;25754;-63
2021/12/01 04:24:37;;;;;;;9.52;7.15;;;;;;;8.39;96.92;99136.50;1986548;29;21052;-63
2021/12/01 04:25:43;;;;;;;11.90;6.82;;;;;;;8.40;96.94;99136.44;1986873;29;22439;-63
2021/12/01 04:26:48;;;;;;;9.10;6.30;;;;;;;8.40;96.92;99140.91;1986733;29;20055;-63
2021/12/01 04:27:50;;;;;;;8.55;6.80;;;;;;;8.39;96.18;99137.34;1986567;29;24293;-62
2021/12/01 04:28:53;;;;;;;8.15;6.30;;;;;;;8.39;96.73;99129.34;1985737;29;35017;-63
2021/12/01 04:29:58;;;;;;;7.07;5.10;;;;;;;8.40;96.63;99124.91;1986256;29;21933;-62
2021/12/01 04:31:00;;;;;;;6.63;4.93;;;;;;;8.40;96.33;99132.91;1978659;29;23884;-63
2021/12/01 04:32:03;;;;;;;7.65;5.07;;;;;;;8.40;96.28;99116.91;1979163;29;21968;-62
2021/12/01 04:33:05;;;;;;;4.85;3.75;;;;;;;8.39;96.54;99115.16;1987739;29;20185;-63
2021/12/01 04:34:08;;;;;;;5.15;4.00;;;;;;;8.39;96.11;99120.50;1985833;29;28344;-62
2021/12/01 04:35:10;;;;;;;4.35;3.53;;;;;;;8.40;96.93;99120.44;1987200;29;20169;-63
2021/12/01 04:36:12;;;;;;;4.35;3.00;;;;;;;8.38;96.03;99116.06;1986353;29;27526;-63
2021/12/01 07:27:20;;;;;;;4.03;3.63;;;;;;;7.49;94.50;98726.56;2018095;23;20069;-62
2021/12/01 07:28:22;;;;;;;2.15;2.00;;;;;;;7.47;93.95;98728.44;2002409;29;20043;-62
2021/12/01 07:29:26;;;;;;;2.13;1.80;;;;;;;7.47;94.07;98723.13;2002167;29;27323;-61
2021/12/01 07:30:28;;;;;;;1.92;1.83;;;;;;;7.46;93.96;98721.38;2001993;29;20120;-62
2021/12/01 07:31:30;;;;;;;2.20;2.00;;;;;;;7.45;94.07;98714.34;2001814;29;31778;-62
2021/12/01 07:32:33;;;;;;;2.53;1.90;;;;;;;7.45;94.19;98709.00;2001864;29;20949;-62
2021/12/01 07:33:34;;;;;;;2.20;2.10;;;;;;;7.43;94.38;98711.75;2001940;29;27858;-62
2021/12/01 07:34:43;;;;;;;2.15;1.98;;;;;;;7.42;94.36;98720.66;2001596;29;21224;-62
2021/12/01 07:35:48;;;;;;;2.30;2.10;;;;;;;7.42;94.24;98699.34;1993802;29;20051;-62
2021/12/01 07:36:49;;;;;;;1.98;1.88;;;;;;;7.44;93.92;98701.94;1994376;29;20059;-62
2021/12/01 07:37:55;;;;;;;2.78;2.40;;;;;;;7.45;94.26;98711.69;2001519;29;29339;-61
2021/12/01 07:38:59;;;;;;;3.40;2.28;;;;;;;7.43;94.38;98702.91;2001825;29;25375;-63
2021/12/01 07:40:02;;;;;;;2.50;2.30;;;;;;;7.41;94.61;98697.66;2002077;29;20093;-63
2021/12/01 07:41:04;;;;;;;2.80;2.60;;;;;;;7.40;94.65;98700.38;2001979;29;28054;-61
2021/12/01 07:42:07;;;;;;;2.33;2.10;;;;;;;7.41;94.62;98700.31;2001268;29;20058;-61
2021/12/01 07:43:09;;;;;;;2.67;2.47;;;;;;;7.41;94.31;98691.44;2004661;29;20152;-63
2021/12/01 07:44:10;;;;;;;2.22;2.08;;;;;;;7.41;94.57;98691.44;1993945;29;20291;-63
2021/12/01 07:45:12;;;;;;;2.47;2.28;;;;;;;7.40;94.57;98687.06;1993865;29;25612;-63
2021/12/01 07:46:15;;;;;;;2.65;2.45;;;;;;;7.40;94.34;98687.91;1993906;29;22164;-63
2021/12/01 07:47:17;;;;;;;3.00;2.63;;;;;;;7.39;94.22;98680.88;1996396;29;21938;-63
2021/12/01 07:48:19;;;;;;;2.53;2.33;;;;;;;7.40;94.12;98684.41;2002238;29;20093;-63
2021/12/01 07:49:21;;;;;;;2.05;1.92;;;;;;;7.39;94.15;98690.66;2002293;29;23996;-63
2021/12/01 07:50:22;;;;;;;2.50;2.30;;;;;;;7.39;94.11;98680.88;1986155;29;20429;-63
2021/12/01 07:51:24;;;;;;;3.22;2.58;;;;;;;7.40;93.97;98673.75;1986327;29;28386;-64
2021/12/01 07:52:26;;;;;;;5.32;2.20;;;;;;;7.39;94.11;98669.34;2001978;29;23035;-63
2021/12/01 07:53:32;;;;;;;2.30;2.10;;;;;;;7.38;94.00;98662.31;2002250;29;20042;-63
2021/12/01 07:54:35;;;;;;;2.70;2.50;;;;;;;7.38;94.13;98667.63;2002253;29;20902;-63
2021/12/01 07:55:39;;;;;;;2.60;2.40;;;;;;;7.36;94.48;98661.53;2002575;29;26598;-61
2021/12/01 07:56:40;;;;;;;2.42;2.22;;;;;;;7.36;93.73;98669.50;1994601;29;25579;-62
2021/12/01 07:57:42;;;;;;;2.60;2.40;;;;;;;7.39;94.41;98664.03;1993031;29;28123;-67
2021/12/01 07:58:44;;;;;;;2.60;2.40;;;;;;;7.35;94.04;98660.63;2000852;29;20045;-66
2021/12/01 07:59:49;;;;;;;2.40;2.20;;;;;;;7.36;94.18;98650.88;2001600;29;20098;-62
2021/12/01 08:00:50;;;;;;;3.22;2.55;;;;;;;7.36;94.25;98653.53;1990903;29;20085;-61
2021/12/01 08:01:53;;;;;;;2.60;2.40;;;;;;;7.38;94.22;98641.03;2002546;29;20042;-66
2021/12/01 08:02:54;;;;;;;1.95;1.85;;;;;;;7.40;93.88;98657.78;2001145;29;22106;-61
2021/12/01 08:03:56;;;;;;;2.50;2.22;;;;;;;7.39;93.30;98654.25;2001511;29;20051;-61
2021/12/01 08:04:58;;;;;;;2.50;2.30;;;;;;;7.40;94.01;98642.66;2008483;29;28064;-65
2021/12/01 08:06:00;;;;;;;2.25;2.10;;;;;;;7.40;93.19;98636.47;2001126;29;21175;-64
2021/12/01 08:07:02;;;;;;;2.63;2.30;;;;;;;7.39;93.58;98637.41;2001523;29;22301;-61
2021/12/01 08:08:05;;;;;;;3.53;2.13;;;;;;;7.39;93.78;98637.41;2001190;29;20039;-61
2021/12/01 08:09:07;;;;;;;3.15;2.50;;;;;;;7.41;93.63;98640.84;2001582;29;20105;-62
2021/12/01 08:10:12;;;;;;;2.45;2.25;;;;;;;7.40;93.10;98642.66;2005160;29;20038;-62
2021/12/01 08:11:14;;;;;;;2.25;2.05;;;;;;;7.41;93.80;98635.53;2001817;29;29319;-61
2021/12/01 08:12:16;;;;;;;2.28;2.13;;;;;;;7.40;93.28;98633.81;1998531;29;21829;-62
2021/12/01 08:13:18;;;;;;;2.60;2.40;;;;;;;7.41;93.23;98619.56;2001890;29;20062;-62
2021/12/01 08:14:25;;;;;;;2.50;2.30;;;;;;;7.42;92.62;98634.59;2001971;29;20038;-62
2021/12/01 08:15:27;;;;;;;2.75;1.98;;;;;;;7.43;93.27;98618.56;2000744;29;28589;-62
2021/12/01 08:16:29;;;;;;;2.80;2.60;;;;;;;7.42;92.68;98619.50;2001924;29;20134;-63
2021/12/01 08:17:31;;;;;;;2.65;2.45;;;;;;;7.41;93.43;98632.88;2003350;29;20054;-62
2021/12/01 08:18:33;;;;;;;3.00;2.50;;;;;;;7.40;93.21;98625.84;2002218;29;20109;-62
2021/12/01 08:19:35;;;;;;;2.05;1.95;;;;;;;7.43;92.68;98641.66;2001897;29;20802;-63
2021/12/01 08:20:40;;;;;;;2.20;2.00;;;;;;;7.44;93.55;98616.75;2000437;29;20090;-62
2021/12/01 08:21:46;;;;;;;2.60;2.35;;;;;;;7.41;93.44;98622.22;2001403;29;20089;-62
2021/12/01 08:22:48;;;;;;;2.30;2.10;;;;;;;7.42;93.15;98615.97;2001849;29;20930;-69
2021/12/01 08:23:53;;;;;;;2.50;2.30;;;;;;;7.42;93.31;98621.28;2002195;29;20042;-63
2021/12/01 08:25:01;;;;;;;3.92;2.60;;;;;;;7.41;93.17;98615.13;1993763;29;20058;-68
2021/12/01 08:26:03;;;;;;;2.60;2.40;;;;;;;7.42;92.69;98610.66;1987069;29;24257;-62
2021/12/01 08:27:07;;;;;;;3.58;2.38;;;;;;;7.41;93.32;98614.22;1985666;29;21473;-65
2021/12/01 08:28:08;;;;;;;3.33;2.30;;;;;;;7.44;93.21;98614.09;1987996;29;21279;-63
2021/12/01 08:29:14;;;;;;;3.40;2.17;;;;;;;7.44;92.56;98611.44;2001336;29;20140;-65
2021/12/01 08:30:17;;;;;;;2.80;2.60;;;;;;;7.45;93.10;98602.53;1993919;29;20042;-63
2021/12/01 08:31:22;;;;;;;2.85;2.65;;;;;;;7.44;93.59;98601.63;1994067;29;20995;-63
2021/12/01 08:32:24;;;;;;;2.00;1.80;;;;;;;7.44;92.77;98598.13;2001322;29;20045;-63
2021/12/01 08:33:28;;;;;;;2.50;2.13;;;;;;;7.43;92.91;98591.94;2001277;29;27944;-64
2021/12/01 08:34:30;;;;;;;2.28;2.08;;;;;;;7.44;92.88;98593.66;1993050;29;20813;-63
2021/12/01 08:35:33;;;;;;;2.65;2.42;;;;;;;7.45;92.82;98589.22;1984829;29;20851;-62
2021/12/01 08:36:35;;;;;;;2.03;1.83;;;;;;;7.45;92.78;98576.75;1993321;29;32291;-64
2021/12/01 08:37:37;;;;;;;2.13;1.98;;;;;;;7.48;93.00;98586.38;2001568;29;30395;-62
2021/12/01 08:38:41;;;;;;;1.88;1.77;;;;;;;7.50;92.35;98583.66;2001184;29;31240;-63
2021/12/01 08:39:43;;;;;;;1.85;1.75;;;;;;;7.51;92.32;98570.25;2001307;29;20272;-63
2021/12/01 08:40:45;;;;;;;1.80;1.67;;;;;;;7.50;92.41;98570.34;1993098;29;24086;-63
2021/12/01 08:41:46;;;;;;;1.95;1.58;;;;;;;7.51;92.14;98567.59;1993341;29;20111;-62
2021/12/01 08:42:49;;;;;;;2.00;1.90;;;;;;;7.52;92.05;98565.78;2000555;29;20165;-63
2021/12/01 08:43:51;;;;;;;2.10;1.90;;;;;;;7.50;92.33;98570.34;1992415;29;33340;-62
2021/12/01 08:44:53;;;;;;;1.83;1.73;;;;;;;7.50;92.28;98552.59;1977526;29;21032;-62
2021/12/01 08:45:55;;;;;;;1.77;1.67;;;;;;;7.50;92.63;98557.03;1985840;29;26931;-62
2021/12/01 08:47:01;;;;;;;2.72;1.80;;;;;;;7.51;92.84;98556.09;1997716;29;25659;-63
2021/12/01 08:48:05;;;;;;;1.50;1.40;;;;;;;7.53;92.13;98557.72;2002729;29;21015;-63
2021/12/01 08:49:07;;;;;;;2.65;1.30;;;;;;;7.53;92.05;98562.22;2002612;29;22780;-63
2021/12/01 08:50:10;;;;;;;1.85;1.00;;;;;;;7.57;91.95;98556.66;1992858;29;20039;-63
2021/12/01 08:51:21;;;;;;;1.55;1.30;;;;;;;7.57;91.82;98554.00;1994767;29;27564;-62
2021/12/01 08:52:32;;;;;;;1.60;1.17;;;;;;;7.56;92.20;98567.38;1993078;29;20055;-68
2021/12/01 08:53:40;;;;;;;1.27;1.08;;;;;;;7.56;92.19;98564.72;1993555;29;22340;-63
2021/12/01 08:54:43;;;;;;;1.35;1.20;;;;;;;7.57;92.10;98553.13;2000970;29;27616;-63
2021/12/01 08:55:45;;;;;;;1.30;1.20;;;;;;;7.54;92.02;98543.50;2001358;29;20174;-61
2021/12/01 08:56:48;;;;;;;1.58;1.40;;;;;;;7.54;91.96;98555.97;2002246;29;20260;-63
2021/12/01 08:57:52;;;;;;;1.40;1.30;;;;;;;7.56;91.88;98551.41;1991595;29;23755;-62
2021/12/01 08:58:54;;;;;;;2.05;1.30;;;;;;;7.56;92.24;98544.28;1993606;29;20081;-61
2021/12/01 08:59:56;;;;;;;3.95;1.15;;;;;;;7.56;91.61;98554.06;2001726;29;20063;-61
2021/12/01 09:00:58;;;;;;;2.35;1.67;;;;;;;7.55;92.46;98550.53;2001355;29;20042;-61
2021/12/01 09:02:10;;;;;;;1.83;1.60;;;;;;;7.55;91.96;98555.00;2001179;29;30990;-61
2021/12/01 09:03:53;;;;;;;1.95;1.33;;;;;;;7.52;92.13;98545.38;1986033;29;20050;-62
2021/12/01 09:05:29;;;;;;;1.58;1.40;;;;;;;7.51;92.19;98535.66;1994740;29;20677;-61
2021/12/01 09:07:39;;;;;;;1.13;0.93;;;;;;;7.53;91.68;98544.41;2003976;29;20046;-67
2021/12/01 09:08:56;;;;;;;1.75;1.20;;;;;;;7.55;92.38;98536.34;2001370;29;20118;-63
2021/12/01 09:09:57;;;;;;;1.60;1.10;;;;;;;7.56;92.24;98522.97;2001140;29;28795;-63
2021/12/01 09:11:03;;;;;;;1.50;1.40;;;;;;;7.58;91.99;98521.09;2000927;29;31141;-62
2021/12/01 09:12:05;;;;;;;1.30;1.20;;;;;;;7.61;91.70;98520.09;2000697;29;20126;-63
2021/12/01 09:13:10;;;;;;;1.52;1.27;;;;;;;7.60;91.82;98521.88;1999650;29;26717;-63
2021/12/01 09:14:12;;;;;;;1.63;1.52;;;;;;;7.60;92.17;98516.53;2000939;29;20271;-63
2021/12/01 09:15:14;;;;;;;2.65;1.50;;;;;;;7.61;92.19;98523.63;1993041;29;22884;-63
2021/12/01 09:16:21;;;;;;;2.03;1.30;;;;;;;7.63;92.10;98516.41;1985565;29;27193;-62
2021/12/01 09:17:26;;;;;;;1.40;1.30;;;;;;;7.62;92.20;98527.97;1994191;29;20812;-62
2021/12/01 09:18:29;;;;;;;1.42;1.33;;;;;;;7.63;91.69;98503.09;2000969;29;28664;-62
2021/12/01 09:19:31;;;;;;;1.60;1.40;;;;;;;7.67;92.08;98516.25;1994150;29;20091;-62
2021/12/01 09:20:33;;;;;;;2.15;1.33;;;;;;;7.65;91.64;98511.84;1991168;29;27715;-62
2021/12/01 09:21:36;;;;;;;1.23;1.13;;;;;;;7.65;92.31;98503.03;2001774;29;20166;-63
2021/12/01 09:22:38;;;;;;;1.52;1.42;;;;;;;7.64;91.89;98486.19;2000557;29;20046;-63
2021/12/01 09:23:40;;;;;;;1.42;1.30;;;;;;;7.67;91.82;98510.94;1985659;29;20132;-63
2021/12/01 09:24:44;;;;;;;2.30;1.27;;;;;;;7.66;91.99;98507.38;1985831;29;20136;-63